sensor_id;sensor_type;location;lat;lon;timestamp;P1;durP1;ratioP1;P2;durP2;ratioP2
8964;SDS011;4517;49.020;12.066;2022-09-09T00:09:57;7.57;;;7.00;;
8964;SDS011;4517;49.020;12.066;2022-09-09T00:18:46;8.10;;;7.50;;
8964;SDS011;4517;49.020;12.066;2022-09-09T00:21:22;13.93;;;9.00;;
8964;SDS011;4517;49.020;12.066;2022-09-09T00:24:26;10.43;;;8.33;;
8964;SDS011;4517;49.020;12.066;2022-09-09T00:27:06;10.83;;;9.73;;
8964;SDS011;4517;49.020;12.066;2022-09-09T00:29:57;11.70;;;10.17;;
8964;SDS011;4517;49.020;12.066;2022-09-09T00:32:39;11.50;;;9.10;;
8964;SDS011;4517;49.020;12.066;2022-09-09T00:38:03;10.93;;;9.83;;
8964;SDS011;4517;49.020;12.066;2022-09-09T00:40:46;10.03;;;8.90;;
8964;SDS011;4517;49.020;12.066;2022-09-09T00:43:21;9.73;;;8.80;;
8964;SDS011;4517;49.020;12.066;2022-09-09T00:48:20;10.40;;;9.30;;
8964;SDS011;4517;49.020;12.066;2022-09-09T00:50:53;11.70;;;10.50;;
8964;SDS011;4517;49.020;12.066;2022-09-09T00:53:35;11.80;;;10.47;;
8964;SDS011;4517;49.020;12.066;2022-09-09T00:56:20;12.53;;;11.27;;
8964;SDS011;4517;49.020;12.066;2022-09-09T01:01:47;21.10;;;13.30;;
8964;SDS011;4517;49.020;12.066;2022-09-09T01:04:16;22.70;;;15.50;;
8964;SDS011;4517;49.020;12.066;2022-09-09T01:06:51;22.30;;;15.10;;
8964;SDS011;4517;49.020;12.066;2022-09-09T01:12:23;29.43;;;17.00;;
8964;SDS011;4517;49.020;12.066;2022-09-09T01:14:52;26.63;;;17.50;;
8964;SDS011;4517;49.020;12.066;2022-09-09T01:17:34;25.50;;;17.80;;
8964;SDS011;4517;49.020;12.066;2022-09-09T01:20:11;27.30;;;19.13;;
8964;SDS011;4517;49.020;12.066;2022-09-09T01:28:41;36.33;;;19.30;;
8964;SDS011;4517;49.020;12.066;2022-09-09T01:31:09;26.70;;;19.20;;
8964;SDS011;4517;49.020;12.066;2022-09-09T01:33:39;27.00;;;17.90;;
8964;SDS011;4517;49.020;12.066;2022-09-09T01:36:06;23.40;;;18.30;;
8964;SDS011;4517;49.020;12.066;2022-09-09T01:38:36;35.63;;;17.77;;
8964;SDS011;4517;49.020;12.066;2022-09-09T01:41:02;35.70;;;17.80;;
8964;SDS011;4517;49.020;12.066;2022-09-09T01:43:28;23.60;;;18.00;;
8964;SDS011;4517;49.020;12.066;2022-09-09T01:45:55;27.00;;;18.00;;
8964;SDS011;4517;49.020;12.066;2022-09-09T01:48:24;24.73;;;17.37;;
8964;SDS011;4517;49.020;12.066;2022-09-09T01:50:50;22.83;;;16.90;;
8964;SDS011;4517;49.020;12.066;2022-09-09T01:53:17;26.83;;;17.57;;
8964;SDS011;4517;49.020;12.066;2022-09-09T01:55:56;23.23;;;17.60;;
8964;SDS011;4517;49.020;12.066;2022-09-09T02:01:39;19.73;;;16.50;;
8964;SDS011;4517;49.020;12.066;2022-09-09T02:04:38;20.23;;;16.57;;
8964;SDS011;4517;49.020;12.066;2022-09-09T02:07:17;20.80;;;16.10;;
8964;SDS011;4517;49.020;12.066;2022-09-09T02:09:59;17.53;;;14.50;;
8964;SDS011;4517;49.020;12.066;2022-09-09T02:12:29;17.50;;;14.97;;
8964;SDS011;4517;49.020;12.066;2022-09-09T02:14:57;18.90;;;14.20;;
8964;SDS011;4517;49.020;12.066;2022-09-09T02:17:30;19.40;;;15.63;;
8964;SDS011;4517;49.020;12.066;2022-09-09T02:20:03;18.53;;;15.87;;
8964;SDS011;4517;49.020;12.066;2022-09-09T02:22:33;19.20;;;15.37;;
8964;SDS011;4517;49.020;12.066;2022-09-09T02:25:00;20.90;;;14.37;;
8964;SDS011;4517;49.020;12.066;2022-09-09T02:27:26;23.20;;;15.30;;
8964;SDS011;4517;49.020;12.066;2022-09-09T02:29:52;22.13;;;16.67;;
8964;SDS011;4517;49.020;12.066;2022-09-09T02:32:22;19.40;;;17.30;;
8964;SDS011;4517;49.020;12.066;2022-09-09T02:34:50;18.47;;;15.37;;
8964;SDS011;4517;49.020;12.066;2022-09-09T02:37:22;16.93;;;15.10;;
8964;SDS011;4517;49.020;12.066;2022-09-09T02:39:50;19.80;;;15.47;;
8964;SDS011;4517;49.020;12.066;2022-09-09T02:42:16;17.40;;;14.90;;
8964;SDS011;4517;49.020;12.066;2022-09-09T02:44:41;20.30;;;15.53;;
8964;SDS011;4517;49.020;12.066;2022-09-09T02:47:11;17.33;;;15.37;;
8964;SDS011;4517;49.020;12.066;2022-09-09T02:52:50;17.43;;;14.97;;
8964;SDS011;4517;49.020;12.066;2022-09-09T02:55:41;21.27;;;14.73;;
8964;SDS011;4517;49.020;12.066;2022-09-09T02:58:27;15.97;;;14.17;;
8964;SDS011;4517;49.020;12.066;2022-09-09T03:00:53;18.63;;;14.57;;
8964;SDS011;4517;49.020;12.066;2022-09-09T03:03:19;22.10;;;14.13;;
8964;SDS011;4517;49.020;12.066;2022-09-09T03:05:46;15.03;;;13.50;;
8964;SDS011;4517;49.020;12.066;2022-09-09T03:08:12;20.03;;;13.30;;
8964;SDS011;4517;49.020;12.066;2022-09-09T03:10:38;15.50;;;13.90;;
8964;SDS011;4517;49.020;12.066;2022-09-09T03:13:04;16.83;;;13.80;;
8964;SDS011;4517;49.020;12.066;2022-09-09T03:15:31;22.33;;;14.10;;
8964;SDS011;4517;49.020;12.066;2022-09-09T03:17:58;17.03;;;13.50;;
8964;SDS011;4517;49.020;12.066;2022-09-09T03:20:24;14.17;;;12.80;;
8964;SDS011;4517;49.020;12.066;2022-09-09T03:22:51;14.50;;;12.97;;
8964;SDS011;4517;49.020;12.066;2022-09-09T03:25:18;17.13;;;13.40;;
8964;SDS011;4517;49.020;12.066;2022-09-09T03:27:44;15.50;;;13.77;;
8964;SDS011;4517;49.020;12.066;2022-09-09T03:30:10;14.90;;;13.40;;
8964;SDS011;4517;49.020;12.066;2022-09-09T03:32:35;14.90;;;13.33;;
8964;SDS011;4517;49.020;12.066;2022-09-09T03:35:01;15.07;;;13.43;;
8964;SDS011;4517;49.020;12.066;2022-09-09T03:37:27;15.93;;;13.60;;
8964;SDS011;4517;49.020;12.066;2022-09-09T03:39:53;21.83;;;13.43;;
8964;SDS011;4517;49.020;12.066;2022-09-09T03:42:21;16.50;;;13.40;;
8964;SDS011;4517;49.020;12.066;2022-09-09T03:44:47;16.33;;;13.40;;
8964;SDS011;4517;49.020;12.066;2022-09-09T03:47:17;16.57;;;13.47;;
8964;SDS011;4517;49.020;12.066;2022-09-09T03:49:43;15.70;;;14.00;;
8964;SDS011;4517;49.020;12.066;2022-09-09T03:52:09;15.57;;;13.60;;
8964;SDS011;4517;49.020;12.066;2022-09-09T03:54:35;21.70;;;14.40;;
8964;SDS011;4517;49.020;12.066;2022-09-09T03:57:00;18.70;;;15.20;;
8964;SDS011;4517;49.020;12.066;2022-09-09T03:59:26;20.23;;;15.73;;
8964;SDS011;4517;49.020;12.066;2022-09-09T04:01:52;15.93;;;13.97;;
8964;SDS011;4517;49.020;12.066;2022-09-09T04:04:19;20.10;;;13.70;;
8964;SDS011;4517;49.020;12.066;2022-09-09T04:06:45;17.13;;;14.83;;
8964;SDS011;4517;49.020;12.066;2022-09-09T04:09:13;17.60;;;14.97;;
8964;SDS011;4517;49.020;12.066;2022-09-09T04:11:38;16.93;;;14.20;;
8964;SDS011;4517;49.020;12.066;2022-09-09T04:14:04;15.60;;;13.40;;
8964;SDS011;4517;49.020;12.066;2022-09-09T04:16:31;19.20;;;15.37;;
8964;SDS011;4517;49.020;12.066;2022-09-09T04:18:57;17.30;;;14.40;;
8964;SDS011;4517;49.020;12.066;2022-09-09T04:21:24;20.47;;;14.20;;
8964;SDS011;4517;49.020;12.066;2022-09-09T04:23:50;17.23;;;13.33;;
8964;SDS011;4517;49.020;12.066;2022-09-09T04:26:16;16.03;;;14.17;;
8964;SDS011;4517;49.020;12.066;2022-09-09T04:28:42;18.70;;;14.50;;
8964;SDS011;4517;49.020;12.066;2022-09-09T04:31:14;17.93;;;15.07;;
8964;SDS011;4517;49.020;12.066;2022-09-09T04:33:42;18.83;;;14.50;;
8964;SDS011;4517;49.020;12.066;2022-09-09T04:36:08;18.43;;;14.83;;
8964;SDS011;4517;49.020;12.066;2022-09-09T04:38:33;16.10;;;14.20;;
8964;SDS011;4517;49.020;12.066;2022-09-09T04:40:59;18.17;;;16.27;;
8964;SDS011;4517;49.020;12.066;2022-09-09T04:43:25;25.37;;;15.03;;
8964;SDS011;4517;49.020;12.066;2022-09-09T04:45:52;21.00;;;15.20;;
8964;SDS011;4517;49.020;12.066;2022-09-09T04:48:17;18.60;;;14.43;;
8964;SDS011;4517;49.020;12.066;2022-09-09T04:50:43;16.37;;;14.10;;
8964;SDS011;4517;49.020;12.066;2022-09-09T04:53:09;18.20;;;13.77;;
8964;SDS011;4517;49.020;12.066;2022-09-09T04:55:34;21.93;;;15.57;;
8964;SDS011;4517;49.020;12.066;2022-09-09T04:58:04;17.80;;;14.17;;
8964;SDS011;4517;49.020;12.066;2022-09-09T05:00:30;34.00;;;15.17;;
8964;SDS011;4517;49.020;12.066;2022-09-09T05:02:56;29.87;;;16.30;;
8964;SDS011;4517;49.020;12.066;2022-09-09T05:05:22;27.67;;;14.80;;
8964;SDS011;4517;49.020;12.066;2022-09-09T05:07:48;50.57;;;21.97;;
8964;SDS011;4517;49.020;12.066;2022-09-09T05:10:14;27.03;;;18.60;;
8964;SDS011;4517;49.020;12.066;2022-09-09T05:12:41;28.00;;;17.83;;
8964;SDS011;4517;49.020;12.066;2022-09-09T05:15:07;99.07;;;30.27;;
8964;SDS011;4517;49.020;12.066;2022-09-09T05:17:33;34.03;;;17.20;;
8964;SDS011;4517;49.020;12.066;2022-09-09T05:19:59;41.20;;;18.70;;
8964;SDS011;4517;49.020;12.066;2022-09-09T05:22:24;82.03;;;29.13;;
8964;SDS011;4517;49.020;12.066;2022-09-09T05:24:50;34.37;;;15.80;;
8964;SDS011;4517;49.020;12.066;2022-09-09T05:27:17;19.10;;;13.97;;
8964;SDS011;4517;49.020;12.066;2022-09-09T05:29:44;29.00;;;16.27;;
8964;SDS011;4517;49.020;12.066;2022-09-09T05:32:10;19.43;;;12.50;;
8964;SDS011;4517;49.020;12.066;2022-09-09T05:34:36;18.43;;;14.30;;
8964;SDS011;4517;49.020;12.066;2022-09-09T05:37:05;21.43;;;12.77;;
8964;SDS011;4517;49.020;12.066;2022-09-09T05:39:32;15.77;;;12.30;;
8964;SDS011;4517;49.020;12.066;2022-09-09T05:41:58;16.97;;;11.90;;
8964;SDS011;4517;49.020;12.066;2022-09-09T05:44:24;15.17;;;11.87;;
8964;SDS011;4517;49.020;12.066;2022-09-09T05:46:52;16.80;;;12.23;;
8964;SDS011;4517;49.020;12.066;2022-09-09T05:49:19;14.67;;;13.27;;
8964;SDS011;4517;49.020;12.066;2022-09-09T05:51:45;13.57;;;12.17;;
8964;SDS011;4517;49.020;12.066;2022-09-09T05:54:11;14.97;;;13.60;;
8964;SDS011;4517;49.020;12.066;2022-09-09T05:56:40;12.67;;;11.47;;
8964;SDS011;4517;49.020;12.066;2022-09-09T05:59:07;12.80;;;11.70;;
8964;SDS011;4517;49.020;12.066;2022-09-09T06:01:34;14.57;;;13.07;;
8964;SDS011;4517;49.020;12.066;2022-09-09T06:04:01;15.20;;;12.53;;
8964;SDS011;4517;49.020;12.066;2022-09-09T06:06:30;14.37;;;13.10;;
8964;SDS011;4517;49.020;12.066;2022-09-09T06:09:02;14.63;;;13.33;;
8964;SDS011;4517;49.020;12.066;2022-09-09T06:11:31;14.00;;;12.80;;
8964;SDS011;4517;49.020;12.066;2022-09-09T06:13:57;14.50;;;13.10;;
8964;SDS011;4517;49.020;12.066;2022-09-09T06:16:25;14.80;;;13.30;;
8964;SDS011;4517;49.020;12.066;2022-09-09T06:18:52;17.63;;;12.07;;
8964;SDS011;4517;49.020;12.066;2022-09-09T06:21:20;13.50;;;12.10;;
8964;SDS011;4517;49.020;12.066;2022-09-09T06:23:47;11.43;;;10.53;;
8964;SDS011;4517;49.020;12.066;2022-09-09T06:26:16;13.50;;;12.20;;
8964;SDS011;4517;49.020;12.066;2022-09-09T06:28:46;13.43;;;12.17;;
8964;SDS011;4517;49.020;12.066;2022-09-09T06:31:14;14.27;;;12.77;;
8964;SDS011;4517;49.020;12.066;2022-09-09T06:33:46;12.33;;;11.17;;
8964;SDS011;4517;49.020;12.066;2022-09-09T06:36:13;12.23;;;11.13;;
8964;SDS011;4517;49.020;12.066;2022-09-09T06:38:40;12.50;;;11.40;;
8964;SDS011;4517;49.020;12.066;2022-09-09T06:41:09;13.80;;;12.40;;
8964;SDS011;4517;49.020;12.066;2022-09-09T06:43:36;14.30;;;13.20;;
8964;SDS011;4517;49.020;12.066;2022-09-09T06:46:03;13.37;;;12.37;;
8964;SDS011;4517;49.020;12.066;2022-09-09T06:48:40;13.30;;;12.20;;
8964;SDS011;4517;49.020;12.066;2022-09-09T06:51:14;18.63;;;13.10;;
8964;SDS011;4517;49.020;12.066;2022-09-09T06:53:41;20.97;;;13.43;;
8964;SDS011;4517;49.020;12.066;2022-09-09T06:58:34;14.87;;;13.40;;
8964;SDS011;4517;49.020;12.066;2022-09-09T07:01:08;16.23;;;13.17;;
8964;SDS011;4517;49.020;12.066;2022-09-09T07:03:34;15.50;;;14.10;;
8964;SDS011;4517;49.020;12.066;2022-09-09T07:06:01;16.87;;;15.37;;
8964;SDS011;4517;49.020;12.066;2022-09-09T07:08:26;15.03;;;13.77;;
8964;SDS011;4517;49.020;12.066;2022-09-09T07:10:53;17.03;;;14.73;;
8964;SDS011;4517;49.020;12.066;2022-09-09T07:13:19;16.13;;;14.73;;
8964;SDS011;4517;49.020;12.066;2022-09-09T07:15:50;16.23;;;14.83;;
8964;SDS011;4517;49.020;12.066;2022-09-09T07:18:16;15.07;;;13.60;;
8964;SDS011;4517;49.020;12.066;2022-09-09T07:20:42;15.13;;;13.93;;
8964;SDS011;4517;49.020;12.066;2022-09-09T07:23:07;15.93;;;14.30;;
8964;SDS011;4517;49.020;12.066;2022-09-09T07:25:33;15.00;;;13.70;;
8964;SDS011;4517;49.020;12.066;2022-09-09T07:27:59;15.60;;;14.10;;
8964;SDS011;4517;49.020;12.066;2022-09-09T07:30:24;14.33;;;13.13;;
8964;SDS011;4517;49.020;12.066;2022-09-09T07:32:53;14.07;;;12.63;;
8964;SDS011;4517;49.020;12.066;2022-09-09T07:35:18;14.00;;;12.93;;
8964;SDS011;4517;49.020;12.066;2022-09-09T07:37:45;14.33;;;13.07;;
8964;SDS011;4517;49.020;12.066;2022-09-09T07:40:10;15.53;;;14.23;;
8964;SDS011;4517;49.020;12.066;2022-09-09T07:42:36;17.73;;;14.37;;
8964;SDS011;4517;49.020;12.066;2022-09-09T07:45:02;16.73;;;15.00;;
8964;SDS011;4517;49.020;12.066;2022-09-09T07:47:29;15.80;;;14.30;;
8964;SDS011;4517;49.020;12.066;2022-09-09T07:49:54;15.70;;;14.40;;
8964;SDS011;4517;49.020;12.066;2022-09-09T07:52:21;16.37;;;14.80;;
8964;SDS011;4517;49.020;12.066;2022-09-09T07:54:46;15.53;;;14.30;;
8964;SDS011;4517;49.020;12.066;2022-09-09T07:57:12;15.30;;;14.10;;
8964;SDS011;4517;49.020;12.066;2022-09-09T07:59:38;15.67;;;14.37;;
8964;SDS011;4517;49.020;12.066;2022-09-09T08:02:03;14.00;;;12.80;;
8964;SDS011;4517;49.020;12.066;2022-09-09T08:04:29;14.03;;;12.73;;
8964;SDS011;4517;49.020;12.066;2022-09-09T08:06:56;14.07;;;12.70;;
8964;SDS011;4517;49.020;12.066;2022-09-09T08:09:23;12.30;;;11.20;;
8964;SDS011;4517;49.020;12.066;2022-09-09T08:11:52;12.67;;;11.47;;
8964;SDS011;4517;49.020;12.066;2022-09-09T08:14:18;16.83;;;11.40;;
8964;SDS011;4517;49.020;12.066;2022-09-09T08:16:45;13.77;;;12.37;;
8964;SDS011;4517;49.020;12.066;2022-09-09T08:19:12;14.57;;;13.03;;
8964;SDS011;4517;49.020;12.066;2022-09-09T08:21:40;15.00;;;13.60;;
8964;SDS011;4517;49.020;12.066;2022-09-09T08:24:08;13.20;;;11.90;;
8964;SDS011;4517;49.020;12.066;2022-09-09T08:26:36;14.23;;;12.63;;
8964;SDS011;4517;49.020;12.066;2022-09-09T08:29:04;18.53;;;13.20;;
8964;SDS011;4517;49.020;12.066;2022-09-09T08:31:39;15.40;;;13.17;;
8964;SDS011;4517;49.020;12.066;2022-09-09T08:34:06;15.27;;;13.37;;
8964;SDS011;4517;49.020;12.066;2022-09-09T08:36:34;13.37;;;12.10;;
8964;SDS011;4517;49.020;12.066;2022-09-09T08:39:02;13.47;;;12.37;;
8964;SDS011;4517;49.020;12.066;2022-09-09T08:49:58;12.20;;;11.10;;
8964;SDS011;4517;49.020;12.066;2022-09-09T08:58:19;10.00;;;8.70;;
8964;SDS011;4517;49.020;12.066;2022-09-09T09:06:13;8.40;;;7.73;;
8964;SDS011;4517;49.020;12.066;2022-09-09T09:11:33;10.80;;;8.90;;
8964;SDS011;4517;49.020;12.066;2022-09-09T09:14:03;9.03;;;8.20;;
8964;SDS011;4517;49.020;12.066;2022-09-09T09:16:39;10.60;;;7.83;;
8964;SDS011;4517;49.020;12.066;2022-09-09T09:19:15;9.17;;;8.37;;
8964;SDS011;4517;49.020;12.066;2022-09-09T09:30:01;10.47;;;8.57;;
8964;SDS011;4517;49.020;12.066;2022-09-09T09:32:37;9.40;;;8.57;;
8964;SDS011;4517;49.020;12.066;2022-09-09T09:35:10;8.40;;;7.70;;
8964;SDS011;4517;49.020;12.066;2022-09-09T09:37:37;9.40;;;8.73;;
8964;SDS011;4517;49.020;12.066;2022-09-09T09:40:09;9.73;;;8.93;;
8964;SDS011;4517;49.020;12.066;2022-09-09T09:42:59;10.40;;;9.40;;
8964;SDS011;4517;49.020;12.066;2022-09-09T09:48:18;9.20;;;8.50;;
8964;SDS011;4517;49.020;12.066;2022-09-09T09:50:48;11.63;;;10.73;;
8964;SDS011;4517;49.020;12.066;2022-09-09T09:53:34;9.40;;;8.60;;
8964;SDS011;4517;49.020;12.066;2022-09-09T09:58:31;9.17;;;8.27;;
8964;SDS011;4517;49.020;12.066;2022-09-09T10:01:02;12.03;;;10.93;;
8964;SDS011;4517;49.020;12.066;2022-09-09T10:03:29;9.07;;;8.17;;
8964;SDS011;4517;49.020;12.066;2022-09-09T10:05:56;8.67;;;8.00;;
8964;SDS011;4517;49.020;12.066;2022-09-09T10:08:26;9.23;;;8.43;;
8964;SDS011;4517;49.020;12.066;2022-09-09T10:19:13;8.57;;;7.97;;
8964;SDS011;4517;49.020;12.066;2022-09-09T10:21:46;10.37;;;9.13;;
8964;SDS011;4517;49.020;12.066;2022-09-09T10:29:58;7.40;;;6.90;;
8964;SDS011;4517;49.020;12.066;2022-09-09T10:32:40;8.93;;;8.33;;
8964;SDS011;4517;49.020;12.066;2022-09-09T10:35:12;19.53;;;9.20;;
8964;SDS011;4517;49.020;12.066;2022-09-09T10:53:51;9.03;;;8.23;;
8964;SDS011;4517;49.020;12.066;2022-09-09T10:56:36;8.27;;;7.80;;
8964;SDS011;4517;49.020;12.066;2022-09-09T10:59:14;7.57;;;7.00;;
8964;SDS011;4517;49.020;12.066;2022-09-09T11:04:16;8.13;;;7.23;;
8964;SDS011;4517;49.020;12.066;2022-09-09T11:06:50;8.60;;;7.53;;
8964;SDS011;4517;49.020;12.066;2022-09-09T11:09:21;8.97;;;8.17;;
8964;SDS011;4517;49.020;12.066;2022-09-09T11:11:53;8.40;;;7.73;;
8964;SDS011;4517;49.020;12.066;2022-09-09T11:16:59;8.67;;;7.80;;
8964;SDS011;4517;49.020;12.066;2022-09-09T11:19:41;7.83;;;7.10;;
8964;SDS011;4517;49.020;12.066;2022-09-09T11:30:15;7.87;;;7.07;;
8964;SDS011;4517;49.020;12.066;2022-09-09T11:35:47;8.50;;;7.80;;
8964;SDS011;4517;49.020;12.066;2022-09-09T11:41:08;8.10;;;7.50;;
8964;SDS011;4517;49.020;12.066;2022-09-09T11:43:39;8.57;;;7.77;;
8964;SDS011;4517;49.020;12.066;2022-09-09T11:46:07;8.13;;;7.50;;
8964;SDS011;4517;49.020;12.066;2022-09-09T11:48:38;8.57;;;7.80;;
8964;SDS011;4517;49.020;12.066;2022-09-09T11:51:25;10.27;;;8.37;;
8964;SDS011;4517;49.020;12.066;2022-09-09T11:59:00;9.47;;;8.77;;
8964;SDS011;4517;49.020;12.066;2022-09-09T12:01:36;10.03;;;9.30;;
8964;SDS011;4517;49.020;12.066;2022-09-09T12:04:12;9.50;;;8.60;;
8964;SDS011;4517;49.020;12.066;2022-09-09T12:17:52;8.33;;;7.83;;
8964;SDS011;4517;49.020;12.066;2022-09-09T12:23:04;9.50;;;8.80;;
8964;SDS011;4517;49.020;12.066;2022-09-09T12:28:44;9.90;;;9.10;;
8964;SDS011;4517;49.020;12.066;2022-09-09T12:31:31;9.00;;;8.40;;
8964;SDS011;4517;49.020;12.066;2022-09-09T12:37:02;9.73;;;9.23;;
8964;SDS011;4517;49.020;12.066;2022-09-09T12:39:56;10.03;;;9.20;;
8964;SDS011;4517;49.020;12.066;2022-09-09T12:42:23;11.13;;;10.23;;
8964;SDS011;4517;49.020;12.066;2022-09-09T12:44:51;9.93;;;9.23;;
8964;SDS011;4517;49.020;12.066;2022-09-09T12:47:30;8.83;;;8.17;;
8964;SDS011;4517;49.020;12.066;2022-09-09T12:50:15;9.50;;;8.90;;
8964;SDS011;4517;49.020;12.066;2022-09-09T12:52:51;9.20;;;8.60;;
8964;SDS011;4517;49.020;12.066;2022-09-09T12:55:23;9.80;;;9.20;;
8964;SDS011;4517;49.020;12.066;2022-09-09T12:57:52;10.00;;;8.87;;
8964;SDS011;4517;49.020;12.066;2022-09-09T13:00:20;9.73;;;9.13;;
8964;SDS011;4517;49.020;12.066;2022-09-09T13:02:51;10.50;;;9.67;;
8964;SDS011;4517;49.020;12.066;2022-09-09T13:05:20;9.67;;;9.07;;
8964;SDS011;4517;49.020;12.066;2022-09-09T13:07:47;9.27;;;8.47;;
8964;SDS011;4517;49.020;12.066;2022-09-09T13:10:14;10.03;;;9.20;;
8964;SDS011;4517;49.020;12.066;2022-09-09T13:12:45;9.17;;;8.57;;
8964;SDS011;4517;49.020;12.066;2022-09-09T13:15:19;9.70;;;9.00;;
8964;SDS011;4517;49.020;12.066;2022-09-09T13:18:21;8.30;;;7.70;;
8964;SDS011;4517;49.020;12.066;2022-09-09T13:20:39;8.43;;;7.83;;
8964;SDS011;4517;49.020;12.066;2022-09-09T13:23:12;9.20;;;8.60;;
8964;SDS011;4517;49.020;12.066;2022-09-09T13:25:37;8.43;;;7.93;;
8964;SDS011;4517;49.020;12.066;2022-09-09T13:28:04;9.03;;;8.50;;
8964;SDS011;4517;49.020;12.066;2022-09-09T13:30:43;9.63;;;8.93;;
8964;SDS011;4517;49.020;12.066;2022-09-09T13:33:21;9.30;;;8.80;;
8964;SDS011;4517;49.020;12.066;2022-09-09T13:35:55;10.00;;;9.40;;
8964;SDS011;4517;49.020;12.066;2022-09-09T13:38:23;9.57;;;8.97;;
8964;SDS011;4517;49.020;12.066;2022-09-09T13:40:54;10.07;;;9.37;;
8964;SDS011;4517;49.020;12.066;2022-09-09T13:43:27;11.00;;;10.30;;
8964;SDS011;4517;49.020;12.066;2022-09-09T13:45:55;11.70;;;10.50;;
8964;SDS011;4517;49.020;12.066;2022-09-09T13:48:23;10.43;;;9.73;;
8964;SDS011;4517;49.020;12.066;2022-09-09T13:50:57;10.10;;;9.50;;
8964;SDS011;4517;49.020;12.066;2022-09-09T13:53:24;12.80;;;11.47;;
8964;SDS011;4517;49.020;12.066;2022-09-09T13:55:50;11.63;;;9.97;;
8964;SDS011;4517;49.020;12.066;2022-09-09T13:58:17;11.17;;;10.37;;
8964;SDS011;4517;49.020;12.066;2022-09-09T14:00:47;10.90;;;10.10;;
8964;SDS011;4517;49.020;12.066;2022-09-09T14:03:14;10.83;;;10.23;;
8964;SDS011;4517;49.020;12.066;2022-09-09T14:05:40;11.87;;;10.80;;
8964;SDS011;4517;49.020;12.066;2022-09-09T14:08:07;16.87;;;15.87;;
8964;SDS011;4517;49.020;12.066;2022-09-09T14:10:39;11.47;;;10.80;;
8964;SDS011;4517;49.020;12.066;2022-09-09T14:13:05;11.53;;;10.73;;
8964;SDS011;4517;49.020;12.066;2022-09-09T14:15:31;11.27;;;10.63;;
8964;SDS011;4517;49.020;12.066;2022-09-09T14:17:56;11.70;;;10.93;;
8964;SDS011;4517;49.020;12.066;2022-09-09T14:20:25;11.30;;;10.60;;
8964;SDS011;4517;49.020;12.066;2022-09-09T14:22:51;11.20;;;10.50;;
8964;SDS011;4517;49.020;12.066;2022-09-09T14:25:22;11.10;;;10.50;;
8964;SDS011;4517;49.020;12.066;2022-09-09T14:27:48;10.83;;;10.17;;
8964;SDS011;4517;49.020;12.066;2022-09-09T14:30:16;11.80;;;10.87;;
8964;SDS011;4517;49.020;12.066;2022-09-09T14:32:42;11.30;;;10.53;;
8964;SDS011;4517;49.020;12.066;2022-09-09T14:35:07;11.60;;;10.90;;
8964;SDS011;4517;49.020;12.066;2022-09-09T14:37:33;11.60;;;11.00;;
8964;SDS011;4517;49.020;12.066;2022-09-09T14:39:59;11.13;;;10.53;;
8964;SDS011;4517;49.020;12.066;2022-09-09T14:42:25;11.10;;;10.43;;
8964;SDS011;4517;49.020;12.066;2022-09-09T14:44:51;11.20;;;10.40;;
8964;SDS011;4517;49.020;12.066;2022-09-09T14:47:17;11.73;;;10.97;;
8964;SDS011;4517;49.020;12.066;2022-09-09T14:49:42;10.97;;;10.17;;
8964;SDS011;4517;49.020;12.066;2022-09-09T14:52:08;10.93;;;10.33;;
8964;SDS011;4517;49.020;12.066;2022-09-09T14:54:34;12.07;;;11.37;;
8964;SDS011;4517;49.020;12.066;2022-09-09T14:56:59;11.47;;;10.67;;
8964;SDS011;4517;49.020;12.066;2022-09-09T14:59:25;11.80;;;11.00;;
8964;SDS011;4517;49.020;12.066;2022-09-09T15:01:51;11.10;;;10.40;;
8964;SDS011;4517;49.020;12.066;2022-09-09T15:04:18;10.93;;;10.00;;
8964;SDS011;4517;49.020;12.066;2022-09-09T15:06:44;10.87;;;10.17;;
8964;SDS011;4517;49.020;12.066;2022-09-09T15:09:13;10.67;;;10.00;;
8964;SDS011;4517;49.020;12.066;2022-09-09T15:11:39;11.10;;;10.30;;
8964;SDS011;4517;49.020;12.066;2022-09-09T15:14:05;11.20;;;10.30;;
8964;SDS011;4517;49.020;12.066;2022-09-09T15:16:31;10.43;;;9.60;;
8964;SDS011;4517;49.020;12.066;2022-09-09T15:18:58;11.07;;;10.37;;
8964;SDS011;4517;49.020;12.066;2022-09-09T15:21:26;10.30;;;9.67;;
8964;SDS011;4517;49.020;12.066;2022-09-09T15:23:53;10.47;;;9.50;;
8964;SDS011;4517;49.020;12.066;2022-09-09T15:26:20;9.90;;;9.30;;
8964;SDS011;4517;49.020;12.066;2022-09-09T15:28:46;9.07;;;8.47;;
8964;SDS011;4517;49.020;12.066;2022-09-09T15:31:13;8.87;;;8.37;;
8964;SDS011;4517;49.020;12.066;2022-09-09T15:33:46;9.70;;;8.80;;
8964;SDS011;4517;49.020;12.066;2022-09-09T15:36:14;9.70;;;9.10;;
8964;SDS011;4517;49.020;12.066;2022-09-09T15:38:50;9.40;;;8.80;;
8964;SDS011;4517;49.020;12.066;2022-09-09T15:41:16;9.93;;;9.27;;
8964;SDS011;4517;49.020;12.066;2022-09-09T15:43:44;12.93;;;9.80;;
8964;SDS011;4517;49.020;12.066;2022-09-09T15:46:22;10.00;;;9.20;;
8964;SDS011;4517;49.020;12.066;2022-09-09T15:48:56;9.13;;;8.63;;
8964;SDS011;4517;49.020;12.066;2022-09-09T15:51:27;9.10;;;8.60;;
8964;SDS011;4517;49.020;12.066;2022-09-09T15:53:56;9.13;;;8.63;;
8964;SDS011;4517;49.020;12.066;2022-09-09T15:56:23;10.67;;;9.63;;
8964;SDS011;4517;49.020;12.066;2022-09-09T15:58:49;9.53;;;8.93;;
8964;SDS011;4517;49.020;12.066;2022-09-09T16:01:15;10.30;;;9.53;;
8964;SDS011;4517;49.020;12.066;2022-09-09T16:03:44;9.93;;;9.23;;
8964;SDS011;4517;49.020;12.066;2022-09-09T16:06:15;11.07;;;10.17;;
8964;SDS011;4517;49.020;12.066;2022-09-09T16:08:43;10.07;;;9.43;;
8964;SDS011;4517;49.020;12.066;2022-09-09T16:11:17;10.73;;;9.83;;
8964;SDS011;4517;49.020;12.066;2022-09-09T16:13:51;9.17;;;8.67;;
8964;SDS011;4517;49.020;12.066;2022-09-09T16:16:19;10.03;;;9.33;;
8964;SDS011;4517;49.020;12.066;2022-09-09T16:18:48;8.97;;;8.37;;
8964;SDS011;4517;49.020;12.066;2022-09-09T16:21:20;8.97;;;8.37;;
8964;SDS011;4517;49.020;12.066;2022-09-09T16:23:49;11.47;;;10.57;;
8964;SDS011;4517;49.020;12.066;2022-09-09T16:26:16;10.77;;;9.97;;
8964;SDS011;4517;49.020;12.066;2022-09-09T16:28:43;9.50;;;8.80;;
8964;SDS011;4517;49.020;12.066;2022-09-09T16:31:15;9.53;;;8.87;;
8964;SDS011;4517;49.020;12.066;2022-09-09T16:33:43;9.83;;;9.33;;
8964;SDS011;4517;49.020;12.066;2022-09-09T16:36:11;10.63;;;10.00;;
8964;SDS011;4517;49.020;12.066;2022-09-09T16:38:38;9.40;;;8.90;;
8964;SDS011;4517;49.020;12.066;2022-09-09T16:41:04;9.13;;;8.63;;
8964;SDS011;4517;49.020;12.066;2022-09-09T16:43:32;9.50;;;8.90;;
8964;SDS011;4517;49.020;12.066;2022-09-09T16:45:58;10.13;;;9.43;;
8964;SDS011;4517;49.020;12.066;2022-09-09T16:48:26;9.27;;;8.60;;
8964;SDS011;4517;49.020;12.066;2022-09-09T16:51:01;9.03;;;8.43;;
8964;SDS011;4517;49.020;12.066;2022-09-09T16:53:29;8.60;;;8.10;;
8964;SDS011;4517;49.020;12.066;2022-09-09T16:55:55;9.67;;;8.60;;
8964;SDS011;4517;49.020;12.066;2022-09-09T16:58:20;9.80;;;9.30;;
8964;SDS011;4517;49.020;12.066;2022-09-09T17:00:46;15.07;;;14.17;;
8964;SDS011;4517;49.020;12.066;2022-09-09T17:03:12;9.87;;;9.37;;
8964;SDS011;4517;49.020;12.066;2022-09-09T17:05:41;10.10;;;9.50;;
8964;SDS011;4517;49.020;12.066;2022-09-09T17:08:07;11.13;;;10.30;;
8964;SDS011;4517;49.020;12.066;2022-09-09T17:10:33;9.60;;;9.10;;
8964;SDS011;4517;49.020;12.066;2022-09-09T17:12:58;10.60;;;9.70;;
8964;SDS011;4517;49.020;12.066;2022-09-09T17:15:23;9.13;;;8.40;;
8964;SDS011;4517;49.020;12.066;2022-09-09T17:17:49;9.00;;;8.50;;
8964;SDS011;4517;49.020;12.066;2022-09-09T17:20:17;9.87;;;9.33;;
8964;SDS011;4517;49.020;12.066;2022-09-09T17:22:43;9.37;;;8.87;;
8964;SDS011;4517;49.020;12.066;2022-09-09T17:25:09;9.37;;;8.97;;
8964;SDS011;4517;49.020;12.066;2022-09-09T17:27:35;10.50;;;9.80;;